createdAt,value
2018-09-30T00:00:13.073Z,3.90
2018-09-30T00:02:41.809Z,4.30
2018-09-30T00:05:10.480Z,4.10
2018-09-30T00:07:39.200Z,3.77
2018-09-30T00:10:07.945Z,3.70
2018-09-30T00:12:36.653Z,3.83
2018-09-30T00:15:05.444Z,4.30
2018-09-30T00:17:34.137Z,3.67
2018-09-30T00:20:02.849Z,3.33
2018-09-30T00:22:31.520Z,3.70
2018-09-30T00:25:05.444Z,3.80
2018-09-30T00:27:34.201Z,3.67
2018-09-30T00:30:02.880Z,3.77
2018-09-30T00:32:31.566Z,4.23
2018-09-30T00:35:00.257Z,3.97
2018-09-30T00:37:28.935Z,4.30
2018-09-30T00:39:57.599Z,3.40
2018-09-30T00:42:28.456Z,3.70
2018-09-30T00:44:57.109Z,4.00
2018-09-30T00:47:25.787Z,3.83
2018-09-30T00:49:54.457Z,4.00
2018-09-30T00:52:23.133Z,3.63
2018-09-30T00:54:51.791Z,4.00
2018-09-30T00:57:20.450Z,3.90
2018-09-30T00:59:49.472Z,3.83
2018-09-30T01:02:18.180Z,4.00
2018-09-30T01:04:46.849Z,4.53
2018-09-30T01:07:15.521Z,4.17
2018-09-30T01:09:44.214Z,4.10
2018-09-30T01:12:12.892Z,3.83
2018-09-30T01:14:41.550Z,4.23
2018-09-30T01:17:10.272Z,5.00
2018-09-30T01:19:38.961Z,4.07
2018-09-30T01:22:07.737Z,4.17
2018-09-30T01:24:36.410Z,4.30
2018-09-30T01:27:05.068Z,3.90
2018-09-30T01:29:33.758Z,3.67
2018-09-30T01:32:02.445Z,4.27
2018-09-30T01:34:31.128Z,4.33
2018-09-30T01:37:00.880Z,4.53
2018-09-30T01:39:29.551Z,4.17
2018-09-30T01:41:58.215Z,4.10
2018-09-30T01:44:26.883Z,4.27
2018-09-30T01:46:55.549Z,4.47
2018-09-30T01:49:24.241Z,4.23
2018-09-30T01:52:04.068Z,5.00
2018-09-30T01:54:32.756Z,4.30
2018-09-30T01:57:01.426Z,4.70
2018-09-30T01:59:30.120Z,4.60
2018-09-30T02:01:58.788Z,4.67
2018-09-30T02:04:27.461Z,4.37
2018-09-30T02:06:56.173Z,4.60
2018-09-30T02:09:24.798Z,4.50
2018-09-30T02:11:53.465Z,4.43
2018-09-30T02:14:22.124Z,4.10
2018-09-30T02:16:50.805Z,4.30
2018-09-30T02:19:19.486Z,4.20
2018-09-30T02:21:48.199Z,4.40
2018-09-30T02:24:16.847Z,4.60
2018-09-30T02:26:45.543Z,4.27
2018-09-30T02:29:14.204Z,4.73
2018-09-30T02:31:42.843Z,4.20
2018-09-30T02:34:11.510Z,4.37
2018-09-30T02:36:40.224Z,4.80
2018-09-30T02:39:09.090Z,4.63
2018-09-30T02:41:37.756Z,4.90
2018-09-30T02:44:06.428Z,4.47
2018-09-30T02:46:35.108Z,4.60
2018-09-30T02:49:03.802Z,4.43
2018-09-30T02:51:32.499Z,4.83
2018-09-30T02:54:01.188Z,5.07
2018-09-30T02:56:29.838Z,4.77
2018-09-30T02:58:58.487Z,4.80
2018-09-30T03:01:27.212Z,5.20
2018-09-30T03:03:55.882Z,4.70
2018-09-30T03:06:29.630Z,4.40
2018-09-30T03:09:03.312Z,4.30
2018-09-30T03:11:31.983Z,4.73
2018-09-30T03:14:00.663Z,4.43
2018-09-30T03:16:29.314Z,4.47
2018-09-30T03:18:58.319Z,4.63
2018-09-30T03:21:27.089Z,4.70
2018-09-30T03:23:55.744Z,4.70
2018-09-30T03:26:24.470Z,5.07
2018-09-30T03:28:53.185Z,5.17
2018-09-30T03:31:21.878Z,5.27
2018-09-30T03:33:50.604Z,5.00
2018-09-30T03:36:19.444Z,4.57
2018-09-30T03:38:48.096Z,4.60
2018-09-30T03:41:16.745Z,4.63
2018-09-30T03:43:45.430Z,4.30
2018-09-30T03:46:14.088Z,4.60
2018-09-30T03:48:42.774Z,4.97
2018-09-30T03:51:11.472Z,4.20
2018-09-30T03:53:40.116Z,4.30
2018-09-30T03:56:08.836Z,4.53
2018-09-30T03:58:37.741Z,4.30
2018-09-30T04:01:06.473Z,4.43
2018-09-30T04:03:35.150Z,4.60
2018-09-30T04:06:03.899Z,4.57
2018-09-30T04:08:32.567Z,5.00
2018-09-30T04:11:01.235Z,4.23
2018-09-30T04:13:29.912Z,4.60
2018-09-30T04:15:58.572Z,4.23
2018-09-30T04:18:27.248Z,4.90
2018-09-30T04:20:55.896Z,4.17
2018-09-30T04:23:24.616Z,4.90
2018-09-30T04:25:53.288Z,4.30
2018-09-30T04:28:21.928Z,4.73
2018-09-30T04:30:50.632Z,4.20
2018-09-30T04:33:19.397Z,3.77
2018-09-30T04:35:48.021Z,4.53
2018-09-30T04:38:16.704Z,3.10
2018-09-30T04:40:45.416Z,2.63
2018-09-30T04:43:14.099Z,2.40
2018-09-30T04:45:42.780Z,2.30
2018-09-30T04:48:11.457Z,2.80
2018-09-30T04:50:40.142Z,2.57
2018-09-30T04:53:08.832Z,3.23
2018-09-30T04:55:37.493Z,3.40
2018-09-30T04:58:06.177Z,3.80
2018-09-30T05:00:34.856Z,2.80
2018-09-30T05:03:03.523Z,2.60
2018-09-30T05:05:42.317Z,2.87
2018-09-30T05:08:10.988Z,2.63
2018-09-30T05:10:39.686Z,3.10
2018-09-30T05:13:08.386Z,3.10
2018-09-30T05:15:37.079Z,3.00
2018-09-30T05:18:05.731Z,3.00
2018-09-30T05:20:34.427Z,2.60
2018-09-30T05:23:03.087Z,2.87
2018-09-30T05:25:32.953Z,2.60
2018-09-30T05:28:01.635Z,3.03
2018-09-30T05:30:30.304Z,2.70
2018-09-30T05:32:58.963Z,2.90
2018-09-30T05:35:27.678Z,2.07
2018-09-30T05:37:56.358Z,2.33
2018-09-30T05:40:25.055Z,2.47
2018-09-30T05:42:53.768Z,2.00
2018-09-30T05:45:22.439Z,2.40
2018-09-30T05:47:51.252Z,2.30
2018-09-30T05:50:19.954Z,2.50
2018-09-30T05:52:48.675Z,2.30
2018-09-30T05:55:17.390Z,2.37
2018-09-30T05:57:46.095Z,2.27
2018-09-30T06:00:14.938Z,2.27
2018-09-30T06:02:43.665Z,1.77
2018-09-30T06:05:12.370Z,2.00
2018-09-30T06:07:41.042Z,2.13
2018-09-30T06:10:10.760Z,1.93
2018-09-30T06:12:39.441Z,2.00
2018-09-30T06:15:08.180Z,1.90
2018-09-30T06:17:36.868Z,1.97
2018-09-30T06:20:06.945Z,2.10
2018-09-30T06:22:35.685Z,1.90
2018-09-30T06:25:04.508Z,2.10
2018-09-30T06:27:33.307Z,1.63
2018-09-30T06:30:02.060Z,2.17
2018-09-30T06:32:30.784Z,1.83
2018-09-30T06:34:59.552Z,1.80
2018-09-30T06:37:28.318Z,2.43
2018-09-30T06:39:57.085Z,2.10
2018-09-30T06:42:26.170Z,2.20
2018-09-30T06:44:54.875Z,1.80
2018-09-30T06:47:23.588Z,1.53
2018-09-30T06:49:52.300Z,2.10
2018-09-30T06:52:21.254Z,1.90
2018-09-30T06:54:50.455Z,2.10
2018-09-30T06:57:19.411Z,2.00
2018-09-30T06:59:48.413Z,2.10
2018-09-30T07:02:17.625Z,2.10
2018-09-30T07:04:46.694Z,1.90
2018-09-30T07:07:15.647Z,1.93
2018-09-30T07:09:44.443Z,1.70
2018-09-30T07:12:13.163Z,1.30
2018-09-30T07:14:42.168Z,1.10
2018-09-30T07:17:11.186Z,1.47
2018-09-30T07:19:40.085Z,1.17
2018-09-30T07:22:09.260Z,1.50
2018-09-30T07:24:38.073Z,1.27
2018-09-30T07:27:07.437Z,1.57
2018-09-30T07:29:36.468Z,1.40
2018-09-30T07:32:05.387Z,1.40
2018-09-30T07:34:34.178Z,1.10
2018-09-30T07:37:03.265Z,1.03
2018-09-30T07:39:32.207Z,0.87
2018-09-30T07:42:01.080Z,0.90
2018-09-30T07:44:29.943Z,0.90
2018-09-30T07:46:58.704Z,1.10
2018-09-30T07:49:27.605Z,0.77
2018-09-30T07:51:56.456Z,1.13
2018-09-30T07:54:25.185Z,1.20
2018-09-30T07:56:53.992Z,1.27
2018-09-30T07:59:22.873Z,0.90
2018-09-30T08:01:51.773Z,0.97
2018-09-30T08:04:20.715Z,1.20
2018-09-30T08:06:49.503Z,0.80
2018-09-30T08:09:18.480Z,1.00
2018-09-30T08:11:47.562Z,0.70
2018-09-30T08:14:16.924Z,1.00
2018-09-30T08:16:45.930Z,0.80
2018-09-30T08:19:14.611Z,1.00
2018-09-30T08:21:43.361Z,0.87
2018-09-30T08:24:12.126Z,1.07
2018-09-30T08:26:40.769Z,1.20
2018-09-30T08:29:09.473Z,1.30
2018-09-30T08:31:38.211Z,1.27
2018-09-30T08:34:06.893Z,1.40
2018-09-30T08:36:35.620Z,1.40
2018-09-30T08:39:04.932Z,1.20
2018-09-30T08:41:33.618Z,1.13
2018-09-30T08:44:02.354Z,1.30
2018-09-30T08:46:31.108Z,1.50
2018-09-30T08:48:59.809Z,1.23
2018-09-30T08:51:28.493Z,1.23
2018-09-30T08:53:57.187Z,1.50
2018-09-30T08:56:25.936Z,1.43
2018-09-30T08:58:54.682Z,1.13
2018-09-30T09:01:23.384Z,1.10
2018-09-30T09:03:52.144Z,1.30
2018-09-30T09:06:20.893Z,1.37
2018-09-30T09:08:49.571Z,1.30
2018-09-30T09:11:18.275Z,1.30
2018-09-30T09:13:46.995Z,1.20
2018-09-30T09:16:15.676Z,1.47
2018-09-30T09:18:44.371Z,1.53
2018-09-30T09:21:13.090Z,1.33
2018-09-30T09:23:41.812Z,1.10
2018-09-30T09:26:10.553Z,0.97
2018-09-30T09:28:39.252Z,1.43
2018-09-30T09:31:07.964Z,1.00
2018-09-30T09:33:36.645Z,1.30
2018-09-30T09:36:05.338Z,1.20
2018-09-30T09:38:34.103Z,0.90
2018-09-30T09:41:02.716Z,1.10
2018-09-30T09:43:31.426Z,1.87
2018-09-30T09:46:00.120Z,0.77
2018-09-30T09:48:28.784Z,1.03
2018-09-30T09:50:57.460Z,1.10
2018-09-30T09:53:26.135Z,1.10
2018-09-30T09:55:54.816Z,1.00
2018-09-30T09:58:23.490Z,1.30
2018-09-30T10:00:52.162Z,1.13
2018-09-30T10:03:20.842Z,1.00
2018-09-30T10:05:49.573Z,1.00
2018-09-30T10:08:18.297Z,0.73
2018-09-30T10:10:46.975Z,0.73
2018-09-30T10:13:15.670Z,0.80
2018-09-30T10:15:44.295Z,0.93
2018-09-30T10:18:12.960Z,1.00
2018-09-30T10:20:41.639Z,0.70
2018-09-30T10:23:10.319Z,1.00
2018-09-30T10:25:38.998Z,1.30
2018-09-30T10:28:07.712Z,1.00
2018-09-30T10:30:36.441Z,1.10
2018-09-30T10:33:05.165Z,1.17
2018-09-30T10:35:33.827Z,0.93
2018-09-30T10:38:02.519Z,1.10
2018-09-30T10:40:32.963Z,1.20
2018-09-30T10:43:01.640Z,1.03
2018-09-30T10:45:30.383Z,1.00
2018-09-30T10:47:59.059Z,1.13
2018-09-30T10:50:27.737Z,1.13
2018-09-30T10:52:56.412Z,0.87
2018-09-30T10:55:25.164Z,1.23
2018-09-30T10:57:54.696Z,1.50
2018-09-30T11:00:23.491Z,1.70
2018-09-30T11:02:52.201Z,1.53
2018-09-30T11:05:20.945Z,1.20
2018-09-30T11:07:49.748Z,1.60
2018-09-30T11:10:18.516Z,1.03
2018-09-30T11:12:48.879Z,1.20
2018-09-30T11:15:17.560Z,1.00
2018-09-30T11:17:46.240Z,0.90
2018-09-30T11:20:14.931Z,1.00
2018-09-30T11:22:43.640Z,1.17
2018-09-30T11:25:12.330Z,1.00
2018-09-30T11:27:41.015Z,0.90
2018-09-30T11:30:09.708Z,1.03
2018-09-30T11:32:38.465Z,0.67
2018-09-30T11:35:07.163Z,0.60
2018-09-30T11:37:35.942Z,0.80
2018-09-30T11:40:05.137Z,1.20
2018-09-30T11:42:34.032Z,0.93
2018-09-30T11:45:02.878Z,1.10
2018-09-30T11:47:31.720Z,1.30
2018-09-30T11:50:00.532Z,1.13
2018-09-30T11:52:29.309Z,1.00
2018-09-30T11:54:58.208Z,1.13
2018-09-30T11:57:27.036Z,0.80
2018-09-30T11:59:55.952Z,1.30
2018-09-30T12:02:24.756Z,1.50
2018-09-30T12:04:53.561Z,2.10
2018-09-30T12:07:22.419Z,1.93
2018-09-30T12:09:51.283Z,2.00
2018-09-30T12:12:20.099Z,1.83
2018-09-30T12:14:49.042Z,1.37
2018-09-30T12:17:17.839Z,1.63
2018-09-30T12:19:46.667Z,1.30
2018-09-30T12:22:15.551Z,1.37
2018-09-30T12:24:44.235Z,1.40
2018-09-30T12:27:12.961Z,1.67
2018-09-30T12:29:41.681Z,1.60
2018-09-30T12:32:10.414Z,1.40
2018-09-30T12:34:39.240Z,1.60
2018-09-30T12:37:08.268Z,2.83
2018-09-30T12:39:37.003Z,4.17
2018-09-30T12:42:05.689Z,2.97
2018-09-30T12:44:34.507Z,3.70
2018-09-30T12:47:03.512Z,4.70
2018-09-30T12:49:32.354Z,2.20
2018-09-30T12:52:01.565Z,2.30
2018-09-30T12:54:30.364Z,2.10
2018-09-30T12:56:59.210Z,2.47
2018-09-30T12:59:28.021Z,2.53
2018-09-30T13:01:56.766Z,2.60
2018-09-30T13:04:25.594Z,2.30
2018-09-30T13:06:54.549Z,2.20
2018-09-30T13:09:23.403Z,2.07
2018-09-30T13:11:52.173Z,1.93
2018-09-30T13:14:20.948Z,1.87
2018-09-30T13:16:49.798Z,2.13
2018-09-30T13:19:18.582Z,2.30
2018-09-30T13:21:47.421Z,2.67
2018-09-30T13:24:16.128Z,2.20
2018-09-30T13:26:44.925Z,3.33
2018-09-30T13:29:13.640Z,2.17
2018-09-30T13:31:42.344Z,2.23
2018-09-30T13:34:11.004Z,2.73
2018-09-30T13:36:39.724Z,2.77
2018-09-30T13:39:11.141Z,2.73
2018-09-30T13:41:40.384Z,2.40
2018-09-30T13:44:09.081Z,3.10
2018-09-30T13:46:37.947Z,2.80
2018-09-30T13:49:06.711Z,2.97
2018-09-30T13:51:35.396Z,3.00
2018-09-30T13:54:04.128Z,3.40
2018-09-30T13:56:32.885Z,2.70
2018-09-30T13:59:01.575Z,2.70
2018-09-30T14:01:30.270Z,3.07
2018-09-30T14:03:58.969Z,3.13
2018-09-30T14:06:27.823Z,2.43
2018-09-30T14:08:56.591Z,3.47
2018-09-30T14:11:25.277Z,3.17
2018-09-30T14:13:53.963Z,3.33
2018-09-30T14:16:22.885Z,2.63
2018-09-30T14:18:51.580Z,3.30
2018-09-30T14:21:20.263Z,3.27
2018-09-30T14:23:49.060Z,3.20
2018-09-30T14:26:17.772Z,2.97
2018-09-30T14:28:46.442Z,2.70
2018-09-30T14:31:15.143Z,2.93
2018-09-30T14:33:43.831Z,2.40
2018-09-30T14:36:12.646Z,2.83
2018-09-30T14:38:41.388Z,2.60
2018-09-30T14:41:10.148Z,3.13
2018-09-30T14:43:39.023Z,2.63
2018-09-30T14:46:07.892Z,2.47
2018-09-30T14:48:36.626Z,2.97
2018-09-30T14:51:05.285Z,2.63
2018-09-30T14:53:34.056Z,3.10
2018-09-30T14:56:02.836Z,2.83
2018-09-30T14:58:31.574Z,2.57
2018-09-30T15:01:00.295Z,2.90
2018-09-30T15:03:28.985Z,2.77
2018-09-30T15:05:57.720Z,2.60
2018-09-30T15:08:26.477Z,3.27
2018-09-30T15:10:55.214Z,3.17
2018-09-30T15:13:23.993Z,2.27
2018-09-30T15:15:52.728Z,2.77
2018-09-30T15:18:21.410Z,2.47
2018-09-30T15:20:50.104Z,2.67
2018-09-30T15:23:18.768Z,1.97
2018-09-30T15:25:47.460Z,2.90
2018-09-30T15:28:16.118Z,2.60
2018-09-30T15:30:44.787Z,2.00
2018-09-30T15:33:13.461Z,3.27
2018-09-30T15:35:42.116Z,3.00
2018-09-30T15:38:11.103Z,2.43
2018-09-30T15:40:40.180Z,2.57
2018-09-30T15:43:08.968Z,2.47
2018-09-30T15:45:37.762Z,2.60
2018-09-30T15:48:06.497Z,2.00
2018-09-30T15:50:35.235Z,1.67
2018-09-30T15:53:04.002Z,2.50
2018-09-30T15:55:32.743Z,2.27
2018-09-30T15:58:01.696Z,2.10
2018-09-30T16:00:30.773Z,2.20
2018-09-30T16:02:59.538Z,2.30
2018-09-30T16:05:28.305Z,2.30
2018-09-30T16:07:57.044Z,1.77
2018-09-30T16:10:25.897Z,2.00
2018-09-30T16:12:54.652Z,1.83
2018-09-30T16:15:23.336Z,1.80
2018-09-30T16:17:52.147Z,1.83
2018-09-30T16:20:20.900Z,2.07
2018-09-30T16:22:49.597Z,1.73
2018-09-30T16:25:18.351Z,1.70
2018-09-30T16:27:47.233Z,2.23
2018-09-30T16:30:15.954Z,2.40
2018-09-30T16:32:44.717Z,1.97
2018-09-30T16:35:13.596Z,1.63
2018-09-30T16:37:42.343Z,2.20
2018-09-30T16:40:11.118Z,1.77
2018-09-30T16:42:39.948Z,2.03
2018-09-30T16:45:08.775Z,2.63
2018-09-30T16:47:37.597Z,2.10
2018-09-30T16:50:06.392Z,2.40
2018-09-30T16:52:35.154Z,2.63
2018-09-30T16:55:03.945Z,2.47
2018-09-30T16:57:32.682Z,3.10
2018-09-30T17:00:01.396Z,2.27
2018-09-30T17:02:30.059Z,1.83
2018-09-30T17:04:58.752Z,2.23
2018-09-30T17:07:27.449Z,2.83
2018-09-30T17:09:56.136Z,2.43
2018-09-30T17:12:24.803Z,2.00
2018-09-30T17:14:53.475Z,2.30
2018-09-30T17:17:22.212Z,2.20
2018-09-30T17:19:50.947Z,1.97
2018-09-30T17:22:19.858Z,1.73
2018-09-30T17:24:48.678Z,2.00
2018-09-30T17:27:17.384Z,1.87
2018-09-30T17:29:46.073Z,1.83
2018-09-30T17:32:14.924Z,2.10
2018-09-30T17:34:43.744Z,1.83
2018-09-30T17:37:12.573Z,1.93
2018-09-30T17:39:41.242Z,1.87
2018-09-30T17:42:09.905Z,1.87
2018-09-30T17:44:38.972Z,2.03
2018-09-30T17:47:07.900Z,1.70
2018-09-30T17:49:36.605Z,2.13
2018-09-30T17:52:05.369Z,2.00
2018-09-30T17:54:34.149Z,1.80
2018-09-30T17:57:02.880Z,1.87
2018-09-30T17:59:31.676Z,2.10
2018-09-30T18:02:00.432Z,2.20
2018-09-30T18:04:29.151Z,3.37
2018-09-30T18:06:57.900Z,2.03
2018-09-30T18:09:26.593Z,1.77
2018-09-30T18:11:55.387Z,1.60
2018-09-30T18:14:24.149Z,2.23
2018-09-30T18:16:53.034Z,1.90
2018-09-30T18:19:21.723Z,2.03
2018-09-30T18:21:50.554Z,2.00
2018-09-30T18:24:19.268Z,2.50
2018-09-30T18:26:48.111Z,1.87
2018-09-30T18:29:16.837Z,1.97
2018-09-30T18:31:45.547Z,1.90
2018-09-30T18:34:14.267Z,2.40
2018-09-30T18:36:42.967Z,2.00
2018-09-30T18:39:12.541Z,1.90
2018-09-30T18:41:41.279Z,1.80
2018-09-30T18:44:10.215Z,2.20
2018-09-30T18:46:38.972Z,1.90
2018-09-30T18:49:07.664Z,2.00
2018-09-30T18:51:36.383Z,2.10
2018-09-30T18:54:05.092Z,1.43
2018-09-30T18:56:33.788Z,1.77
2018-09-30T18:59:02.501Z,2.03
2018-09-30T19:01:31.188Z,1.90
2018-09-30T19:03:59.864Z,2.03
2018-09-30T19:06:28.522Z,2.40
2018-09-30T19:08:57.187Z,2.07
2018-09-30T19:11:25.932Z,2.10
2018-09-30T19:13:54.621Z,2.47
2018-09-30T19:16:23.398Z,2.47
2018-09-30T19:18:52.103Z,2.80
2018-09-30T19:21:20.823Z,2.73
2018-09-30T19:23:49.500Z,2.43
2018-09-30T19:26:18.195Z,2.47
2018-09-30T19:28:46.906Z,2.20
2018-09-30T19:31:16.555Z,2.27
2018-09-30T19:33:45.241Z,2.43
2018-09-30T19:36:14.017Z,2.40
2018-09-30T19:38:42.647Z,2.60
2018-09-30T19:41:11.335Z,2.23
2018-09-30T19:43:40.052Z,2.53
2018-09-30T19:46:09.249Z,2.60
2018-09-30T19:48:38.098Z,2.50
2018-09-30T19:51:06.900Z,2.37
2018-09-30T19:53:35.688Z,2.30
2018-09-30T19:56:04.451Z,2.20
2018-09-30T19:58:33.270Z,2.47
2018-09-30T20:01:02.106Z,2.30
2018-09-30T20:03:30.829Z,1.80
2018-09-30T20:05:59.668Z,2.00
2018-09-30T20:08:28.412Z,2.03
2018-09-30T20:10:57.236Z,2.20
2018-09-30T20:13:26.001Z,1.90
2018-09-30T20:16:02.593Z,2.50
2018-09-30T20:18:31.421Z,2.53
2018-09-30T20:21:00.411Z,2.03
2018-09-30T20:23:29.305Z,2.23
2018-09-30T20:25:58.398Z,2.20
2018-09-30T20:28:27.287Z,2.30
2018-09-30T20:30:56.895Z,2.50
2018-09-30T20:33:25.641Z,2.73
2018-09-30T20:35:54.507Z,2.67
2018-09-30T20:38:23.306Z,2.47
2018-09-30T20:40:52.239Z,2.53
2018-09-30T20:43:21.198Z,2.27
2018-09-30T20:45:49.977Z,2.13
2018-09-30T20:48:18.739Z,2.60
2018-09-30T20:50:47.580Z,1.80
2018-09-30T20:53:16.282Z,1.40
2018-09-30T20:55:45.106Z,2.17
2018-09-30T20:58:13.899Z,2.10
2018-09-30T21:00:42.765Z,2.27
2018-09-30T21:03:11.673Z,2.10
2018-09-30T21:06:29.119Z,1.80
2018-09-30T21:08:57.884Z,1.63
2018-09-30T21:11:26.822Z,2.43
2018-09-30T21:13:55.595Z,1.87
2018-09-30T21:16:24.340Z,2.30
2018-09-30T21:18:53.000Z,1.87
2018-09-30T21:21:21.766Z,2.27
2018-09-30T21:23:50.434Z,1.70
2018-09-30T21:26:19.163Z,1.70
2018-09-30T21:28:47.930Z,2.40
2018-09-30T21:31:16.603Z,1.80
2018-09-30T21:33:45.332Z,1.80
2018-09-30T21:36:14.000Z,1.70
2018-09-30T21:38:42.680Z,2.10
2018-09-30T21:41:11.404Z,1.90
2018-09-30T21:43:40.076Z,2.07
2018-09-30T21:46:08.781Z,2.67
2018-09-30T21:48:37.547Z,2.10
2018-09-30T21:51:06.335Z,2.27
2018-09-30T21:53:35.118Z,2.87
2018-09-30T21:56:03.901Z,2.60
2018-09-30T21:58:32.589Z,3.23
2018-09-30T22:01:02.474Z,2.77
2018-09-30T22:03:31.339Z,1.97
2018-09-30T22:06:00.133Z,2.23
2018-09-30T22:08:28.880Z,2.20
2018-09-30T22:10:57.556Z,2.50
2018-09-30T22:13:26.289Z,1.90
2018-09-30T22:15:55.001Z,2.10
2018-09-30T22:18:23.717Z,2.50
2018-09-30T22:20:52.384Z,2.70
2018-09-30T22:23:21.075Z,2.70
2018-09-30T22:25:49.787Z,2.37
2018-09-30T22:28:18.508Z,2.10
2018-09-30T22:30:47.227Z,2.00
2018-09-30T22:33:15.900Z,2.10
2018-09-30T22:35:44.599Z,2.90
2018-09-30T22:38:13.319Z,2.30
2018-09-30T22:40:42.003Z,2.67
2018-09-30T22:43:10.676Z,2.83
2018-09-30T22:45:39.376Z,2.70
2018-09-30T22:48:08.095Z,2.57
2018-09-30T22:50:36.808Z,2.53
2018-09-30T22:53:05.575Z,2.90
2018-09-30T22:55:37.733Z,2.97
2018-09-30T22:58:10.880Z,2.83
2018-09-30T23:00:46.205Z,2.60
2018-09-30T23:03:23.324Z,3.07
2018-09-30T23:05:52.040Z,2.87
2018-09-30T23:08:20.772Z,2.90
2018-09-30T23:10:49.600Z,1.97
2018-09-30T23:13:18.284Z,2.50
2018-09-30T23:15:46.981Z,2.23
2018-09-30T23:18:15.710Z,2.40
2018-09-30T23:20:44.428Z,3.00
2018-09-30T23:23:13.107Z,2.30
2018-09-30T23:25:41.807Z,2.90
2018-09-30T23:28:10.513Z,2.37
2018-09-30T23:30:39.230Z,2.63
2018-09-30T23:33:07.948Z,3.20
2018-09-30T23:35:36.726Z,3.37
2018-09-30T23:38:05.422Z,2.40
2018-09-30T23:40:34.145Z,2.20
2018-09-30T23:43:02.813Z,2.10
2018-09-30T23:45:31.516Z,2.20
2018-09-30T23:48:00.241Z,2.50
2018-09-30T23:50:28.930Z,2.20
2018-09-30T23:52:57.622Z,2.27
2018-09-30T23:55:26.344Z,2.63
2018-09-30T23:58:05.696Z,2.27
